General Aviation Weather

Text Reports

Enter one or more of the following location identifiers separated by a space:

Zip Code, Four-Character ICAO or Three-Character IATA airport codes.

METAR - Aviation Routine Weather Report
KSDB - Sandberg, California
Updated at 1:48 PM GMT on April 27, 2015 (6:48 AM PDT):
METAR KSDB 271348Z AUTO 07020G27KT 10SM CLR 11/M03 A3009 RMK AO2 PK WND 08031/1336 SLP159 T01111028
TAF - Terminal Area Forecast
KSDB - Sandberg, California
Updated at 1:48 PM GMT on April 27, 2015 (6:48 AM PDT):
No TAF is currently available for this location.
Decoded:
No decoded TAF is available.
PIREP - Pilot Weather Report
KSDB - Sandberg, California
Updated at 1:48 PM GMT on April 27, 2015 (6:48 AM PDT):
No PIREP is currently available for this location.
AIRMET - Airmens Meteorological Information
KSDB - Sandberg, California
Updated at 1:48 PM GMT on April 27, 2015 (6:48 AM PDT):
No AIRMET is currently available for this location.
SIGMET - Significant Meteorological Information
KSDB - Sandberg, California
Updated at 1:48 PM GMT on April 27, 2015 (6:48 AM PDT):
No SIGMET is currently available for this location.
NOTAM - Notice to Airmen
KSDB - Sandberg, California
Updated at 1:48 PM GMT on April 27, 2015 (6:48 AM PDT):
No NOTAM is currently available for this location.
Forecast Area
KSDB - Sandberg, California
Updated at 1:48 PM GMT on April 27, 2015 (6:48 AM PDT):
No NOTAM is currently available for this location.
Aviation Weather Maps